Aérodrome :
LOGIN :

S'inscrire | Disclaimer

   EN    FR    IT 

 










Légende :    VFR   VFR Marginal   IFR   IFR Intensif   IFR Très Intensif
Visi : 
Plafond : 
>= 8 km
>= 3000ft
5 à 8 km
1000 à 3000 ft
1500m à 5 km
500 à 1000 ft
800 à 1500m
200 à 500 ft
< 800m
< 200 ft
Symboles :   Orages  Brouillard  Fortes neiges  Fortes précipitations  Vent > 20 kt
SIGMETs :   Divers  Orages  Givrage  Turbulence  Onde Orograph.  Cendres Volcan.







- Altitude de l'aérodrome : 353 ft
- Code IATA : LIN


LIML - Milano Linate

DERNIER METAR :
  • 191050Z 13004KT 0900 R36/1300 FOG BKN002 12/12 Q1019 BECMG 1500 BR

METARs EXPIRÉS :
  • 191020Z 11003KT 040V180 0600 R36/1000V1400N FG BKN002 13/13 Q1019 NOSIG
  • 190950Z VRB02KT 0600 R36/1000V1300N FG BKN002 13/13 Q1019 NOSIG
  • 190920Z 12003KT 080V170 0600 R36/1000V1200N FG BKN002 13/12 Q1019 NOSIG
  • 190850Z VRB02KT 0600 R36/0750V1000U FG BKN003 12/12 Q1019 NOSIG
  • 190820Z 08003KT 030V130 0800 R36/0800V1200N FG BKN003 13/12 Q1019 BECMG 1500 BR

TAF AMD TAF LIML
Valide du 19 à 09h jusqu'au 20 à 06h UTC


190902Z 1909/2006 06005KT 0700 FG BKN005
BECMG 1910/1912 4000 BR NSC
BECMG 1922/1924 0400 FG BKN005
Pas de NOTAMs connus pour ce terrain.



MET'MAP, la Météo Aéronautique d'un coup d'oeil ! - Copyright ORBIFLY Décembre 2007 - Disclaimer

ORBIFLY MET'MAP TEAM :

Programmation & Développement : Alexandra Zaïnal
Conception & Développement : Baudouin d'Aumeries
Co-Programmation & Développement : Marc-Olivier Méhu
Soutien technique & logistique : Manuel Goepfert

Contact : metmap@orbifly.com




SOURCES & CREDITS :

   NOAA